Time;durP1;ratioP1;P1;durP2;ratioP2;P2;SDS_P1;SDS_P2;PMS_P1;PMS_P2;Temp;Humidity;BMP_temperature;BMP_pressure;BME280_temperature;BME280_humidity;BME280_pressure;Samples;Min_cycle;Max_cycle;Signal;HPM_P1;HPM_P2
2022/08/27 00:00:25;;;;;;;7.07;5.63;;;19.90;99.90;;;;;;5021878;28;20859;-83
2022/08/27 00:02:50;;;;;;;7.73;4.80;;;19.90;99.90;;;;;;5023636;28;20259;-82
2022/08/27 00:05:17;;;;;;;9.53;6.60;;;19.90;99.90;;;;;;5022012;28;20240;-83
2022/08/27 00:07:43;;;;;;;9.67;5.00;;;19.90;99.90;;;;;;5022120;28;20903;-81
2022/08/27 00:10:14;;;;;;;7.30;5.63;;;19.90;99.90;;;;;;5023512;28;20424;-81
2022/08/27 00:12:40;;;;;;;7.77;4.97;;;19.80;99.90;;;;;;5022471;28;20413;-81
2022/08/27 00:15:07;;;;;;;8.17;5.63;;;19.80;99.90;;;;;;5021397;28;20431;-81
2022/08/27 00:17:34;;;;;;;10.03;5.57;;;19.90;99.90;;;;;;5023430;28;20175;-82
2022/08/27 00:19:59;;;;;;;11.07;6.00;;;19.90;99.90;;;;;;5004555;28;20432;-81
2022/08/27 00:22:25;;;;;;;10.20;5.80;;;19.80;99.90;;;;;;5021675;28;20425;-82
2022/08/27 00:24:50;;;;;;;7.43;4.70;;;19.80;99.90;;;;;;5023107;28;20210;-81
2022/08/27 00:27:16;;;;;;;7.87;5.57;;;19.80;99.90;;;;;;5021914;28;20180;-82
2022/08/27 00:29:41;;;;;;;11.33;6.30;;;19.80;99.90;;;;;;5022015;28;20202;-80
2022/08/27 00:32:07;;;;;;;7.40;5.33;;;19.80;99.90;;;;;;5023247;28;20604;-82
2022/08/27 00:34:33;;;;;;;7.77;4.67;;;19.80;99.90;;;;;;5021199;28;20169;-80
2022/08/27 00:36:58;;;;;;;8.67;5.67;;;19.80;99.90;;;;;;5022078;28;20911;-81
2022/08/27 00:39:24;;;;;;;9.13;5.43;;;19.70;99.90;;;;;;5022927;28;20522;-82
2022/08/27 00:41:49;;;;;;;8.23;5.57;;;19.60;99.90;;;;;;5021094;28;20209;-82
2022/08/27 00:44:15;;;;;;;7.20;4.83;;;19.60;99.90;;;;;;5023632;28;20544;-82
2022/08/27 00:46:48;;;;;;;7.30;5.07;;;19.50;99.90;;;;;;5021869;28;20289;-82
2022/08/27 00:49:37;;;;;;;9.50;6.63;;;19.60;99.90;;;;;;5000685;28;20194;-81
2022/08/27 00:52:25;;;;;;;7.30;5.53;;;19.70;99.90;;;;;;5019916;28;20422;-83
2022/08/27 00:54:55;;;;;;;5.80;4.70;;;19.50;99.90;;;;;;5013152;28;20403;-82
2022/08/27 00:57:21;;;;;;;6.20;4.80;;;19.60;99.90;;;;;;5013119;28;20417;-82
2022/08/27 00:59:47;;;;;;;9.47;5.63;;;19.50;99.90;;;;;;5013294;28;20414;-82
2022/08/27 01:02:18;;;;;;;9.83;4.97;;;19.60;99.90;;;;;;4995676;28;20237;-82
2022/08/27 01:04:49;;;;;;;8.80;5.80;;;19.60;99.90;;;;;;5012834;28;20498;-80
2022/08/27 01:07:15;;;;;;;5.43;4.27;;;19.60;99.90;;;;;;5013316;28;20502;-82
2022/08/27 01:09:42;;;;;;;8.40;5.20;;;19.50;99.90;;;;;;5013224;28;20418;-81
2022/08/27 01:12:09;;;;;;;13.93;5.53;;;19.50;99.90;;;;;;5013161;28;20183;-81
2022/08/27 01:14:36;;;;;;;7.90;4.77;;;19.60;99.90;;;;;;4995521;28;20417;-81
2022/08/27 01:17:03;;;;;;;7.80;4.60;;;19.40;99.90;;;;;;5013100;28;20413;-82
2022/08/27 01:19:49;;;;;;;7.43;4.60;;;19.40;99.90;;;;;;5012673;28;20428;-82
2022/08/27 01:22:27;;;;;;;7.20;5.10;;;19.50;99.90;;;;;;5013000;28;20497;-82
2022/08/27 01:24:59;;;;;;;8.90;5.17;;;19.50;99.90;;;;;;5013119;28;20497;-80
2022/08/27 01:27:27;;;;;;;7.10;5.40;;;19.50;99.90;;;;;;5017133;28;20441;-80
2022/08/27 01:29:53;;;;;;;7.63;4.43;;;19.50;99.90;;;;;;5016983;28;20417;-82
2022/08/27 01:32:25;;;;;;;9.73;6.23;;;19.40;99.90;;;;;;5017028;28;20905;-83
2022/08/27 01:34:50;;;;;;;6.80;4.20;;;19.40;99.90;;;;;;5016784;28;20427;-81
2022/08/27 01:37:17;;;;;;;9.37;6.23;;;19.40;99.90;;;;;;5012686;28;20939;-81
2022/08/27 01:39:43;;;;;;;9.50;4.97;;;19.30;99.90;;;;;;5007757;28;20264;-84
2022/08/27 01:42:16;;;;;;;7.57;5.80;;;19.40;99.90;;;;;;5016535;28;20813;-80
2022/08/27 01:44:54;;;;;;;13.50;5.87;;;19.40;99.90;;;;;;5016412;28;20219;-81
2022/08/27 01:47:22;;;;;;;7.30;5.80;;;19.30;99.90;;;;;;5016452;28;20425;-82
2022/08/27 01:49:49;;;;;;;9.37;4.97;;;19.30;99.90;;;;;;5015987;28;20421;-83
2022/08/27 01:52:16;;;;;;;15.27;7.17;;;19.30;99.90;;;;;;5016294;28;20442;-81
2022/08/27 01:54:42;;;;;;;6.83;4.87;;;19.30;99.90;;;;;;5015916;28;20418;-79
2022/08/27 01:57:08;;;;;;;7.00;4.53;;;19.30;99.90;;;;;;5016220;28;20413;-83
2022/08/27 01:59:34;;;;;;;10.10;5.27;;;19.20;99.90;;;;;;5016222;28;20253;-81
2022/08/27 02:02:01;;;;;;;10.80;6.27;;;19.30;99.90;;;;;;5016083;28;20417;-82
2022/08/27 02:04:28;;;;;;;9.50;5.53;;;19.30;99.90;;;;;;5015692;28;20507;-83
2022/08/27 02:06:53;;;;;;;9.17;5.40;;;19.20;99.90;;;;;;5015929;28;20416;-80
2022/08/27 02:09:19;;;;;;;10.00;4.70;;;19.20;99.90;;;;;;5016092;28;20518;-80
2022/08/27 02:11:45;;;;;;;8.53;6.23;;;19.30;99.90;;;;;;5016057;28;20213;-81
2022/08/27 02:14:10;;;;;;;10.47;6.13;;;19.20;99.90;;;;;;5015952;28;20206;-80
2022/08/27 02:16:36;;;;;;;10.33;5.43;;;19.20;99.90;;;;;;5015860;28;20201;-80
2022/08/27 02:19:03;;;;;;;6.80;4.30;;;19.30;99.90;;;;;;5015277;28;20281;-80
2022/08/27 02:21:28;;;;;;;10.53;6.50;;;19.20;99.90;;;;;;5015943;28;20181;-80
2022/08/27 02:23:54;;;;;;;9.10;6.40;;;19.20;99.90;;;;;;4998069;28;20460;-80
2022/08/27 02:26:21;;;;;;;10.53;6.60;;;19.20;99.90;;;;;;5015714;28;20216;-80
2022/08/27 02:28:47;;;;;;;12.80;5.93;;;19.20;99.90;;;;;;5015572;28;20178;-80
2022/08/27 02:31:13;;;;;;;11.43;6.93;;;19.20;99.90;;;;;;5015543;28;20444;-84
2022/08/27 02:33:38;;;;;;;10.60;6.60;;;19.20;99.90;;;;;;5015184;28;20170;-81
2022/08/27 02:36:04;;;;;;;11.17;5.60;;;19.20;99.90;;;;;;5015095;28;20225;-80
2022/08/27 02:38:30;;;;;;;7.63;6.20;;;19.20;99.90;;;;;;5015588;28;20700;-81
2022/08/27 02:40:55;;;;;;;8.53;6.70;;;19.20;99.90;;;;;;5015383;28;20249;-82
2022/08/27 02:43:21;;;;;;;12.30;6.50;;;19.30;99.90;;;;;;5015491;28;20179;-81
2022/08/27 02:45:47;;;;;;;6.93;4.93;;;19.20;99.90;;;;;;5015316;28;20288;-83
2022/08/27 02:48:13;;;;;;;11.17;6.43;;;19.20;99.90;;;;;;5015104;28;20175;-82
2022/08/27 02:50:38;;;;;;;9.07;7.20;;;19.20;99.90;;;;;;5015133;28;20440;-81
2022/08/27 02:53:05;;;;;;;12.73;5.57;;;19.20;99.90;;;;;;5015165;28;20221;-81
2022/08/27 02:55:31;;;;;;;9.43;6.20;;;19.10;99.90;;;;;;5014983;28;20639;-80
2022/08/27 02:57:57;;;;;;;10.50;5.43;;;19.20;99.90;;;;;;5015121;28;20438;-80
2022/08/27 03:00:24;;;;;;;9.57;6.50;;;19.20;99.90;;;;;;5015105;28;20453;-83
2022/08/27 03:02:50;;;;;;;10.57;6.40;;;19.20;99.90;;;;;;5014899;28;20199;-80
2022/08/27 03:05:17;;;;;;;9.77;6.10;;;19.20;99.90;;;;;;5014610;28;20509;-83
2022/08/27 03:07:43;;;;;;;8.03;5.30;;;19.20;99.90;;;;;;5014895;28;20868;-81
2022/08/27 03:10:11;;;;;;;11.00;6.47;;;19.20;99.90;;;;;;5015022;28;20457;-80
2022/08/27 03:12:37;;;;;;;9.17;5.17;;;19.20;99.90;;;;;;5014915;28;20186;-80
2022/08/27 03:15:08;;;;;;;9.37;5.27;;;19.10;99.90;;;;;;5014541;28;20426;-80
2022/08/27 03:20:17;;;;;;;9.10;5.10;;;19.10;99.90;;;;;;5014631;28;20928;-80
2022/08/27 03:22:44;;;;;;;14.23;5.40;;;19.10;99.90;;;;;;4997023;28;20450;-80
2022/08/27 03:25:10;;;;;;;13.00;5.70;;;19.00;99.90;;;;;;5014658;28;20210;-82
2022/08/27 03:27:36;;;;;;;8.97;6.10;;;19.00;99.90;;;;;;5002453;28;20438;-82
2022/08/27 03:30:05;;;;;;;8.33;5.63;;;19.00;99.90;;;;;;5014650;28;20502;-81
2022/08/27 03:32:30;;;;;;;9.03;4.93;;;19.00;99.90;;;;;;5014428;28;20934;-80
2022/08/27 03:34:59;;;;;;;7.43;5.10;;;19.00;99.90;;;;;;5014034;28;20432;-81
2022/08/27 03:37:25;;;;;;;14.80;5.90;;;19.00;99.90;;;;;;5014532;28;20171;-81
2022/08/27 03:39:50;;;;;;;7.97;5.30;;;19.00;99.90;;;;;;5014391;28;20418;-81
2022/08/27 03:42:16;;;;;;;8.00;5.27;;;19.00;99.90;;;;;;5014425;28;20437;-82
2022/08/27 03:44:42;;;;;;;11.90;6.53;;;19.00;99.90;;;;;;5014180;28;20207;-80
2022/08/27 03:47:07;;;;;;;7.53;5.73;;;19.00;99.90;;;;;;5014179;28;20620;-81
2022/08/27 03:49:33;;;;;;;6.67;4.40;;;19.00;99.90;;;;;;5012960;28;20205;-81
2022/08/27 03:51:58;;;;;;;9.50;6.10;;;19.00;99.90;;;;;;5014147;28;20175;-81
2022/08/27 03:54:24;;;;;;;10.47;5.43;;;19.00;99.90;;;;;;5014098;28;20263;-82
2022/08/27 03:56:50;;;;;;;10.40;5.70;;;18.90;99.90;;;;;;5013771;28;20228;-83
2022/08/27 03:59:16;;;;;;;11.57;7.00;;;19.00;99.90;;;;;;5014050;28;20250;-79
2022/08/27 04:01:43;;;;;;;8.57;6.00;;;18.90;99.90;;;;;;5013934;28;20506;-81
2022/08/27 04:04:08;;;;;;;10.53;6.23;;;18.90;99.90;;;;;;5013438;28;20289;-81
2022/08/27 04:06:34;;;;;;;10.03;6.10;;;18.90;99.90;;;;;;5013905;28;20452;-83
2022/08/27 04:09:00;;;;;;;8.10;3.73;;;18.90;99.90;;;;;;5013801;28;20175;-80
2022/08/27 04:11:28;;;;;;;8.10;5.63;;;18.90;99.90;;;;;;5013807;28;20457;-81
2022/08/27 04:13:53;;;;;;;8.83;6.00;;;18.90;99.90;;;;;;5013728;28;20235;-82
2022/08/27 04:16:19;;;;;;;10.30;5.60;;;18.80;99.90;;;;;;5013519;28;20821;-80
2022/08/27 04:18:44;;;;;;;7.50;5.63;;;18.80;99.90;;;;;;5013215;28;20186;-82
2022/08/27 04:21:12;;;;;;;16.87;6.30;;;18.80;99.90;;;;;;5013617;28;20189;-82
2022/08/27 04:23:39;;;;;;;10.37;4.93;;;18.80;99.90;;;;;;5013088;28;20174;-80
2022/08/27 04:26:06;;;;;;;8.20;5.40;;;18.80;99.90;;;;;;5013927;28;20501;-82
2022/08/27 04:28:32;;;;;;;8.10;4.80;;;18.70;99.90;;;;;;5013802;28;20493;-79
2022/08/27 04:30:58;;;;;;;10.80;6.03;;;18.80;99.90;;;;;;5013644;28;20432;-80
2022/08/27 04:33:23;;;;;;;8.17;5.40;;;18.70;99.90;;;;;;5013398;28;20930;-81
2022/08/27 04:35:57;;;;;;;8.70;6.43;;;18.70;99.90;;;;;;5013630;28;20185;-81
2022/08/27 04:38:24;;;;;;;13.17;6.13;;;18.70;99.90;;;;;;5013620;28;20198;-81
2022/08/27 04:43:33;;;;;;;10.27;5.97;;;18.60;99.90;;;;;;5013602;28;20251;-79
2022/08/27 04:45:59;;;;;;;10.17;6.67;;;18.60;99.90;;;;;;5013481;28;20827;-80
2022/08/27 04:48:24;;;;;;;9.43;5.40;;;18.60;99.90;;;;;;5013095;28;20264;-80
2022/08/27 04:50:50;;;;;;;11.83;5.30;;;18.70;99.90;;;;;;5013423;28;20228;-79
2022/08/27 04:53:16;;;;;;;12.20;6.53;;;18.70;99.90;;;;;;5013508;28;20175;-80
2022/08/27 04:55:43;;;;;;;6.97;4.63;;;18.70;99.90;;;;;;5013147;28;20277;-80
2022/08/27 04:58:09;;;;;;;10.30;5.43;;;18.70;99.90;;;;;;5013469;28;20431;-80
2022/08/27 05:00:41;;;;;;;9.70;5.70;;;18.70;99.90;;;;;;5013174;28;20415;-79
2022/08/27 05:03:06;;;;;;;9.93;6.00;;;18.70;99.90;;;;;;5012967;28;20180;-82
2022/08/27 05:05:32;;;;;;;10.37;5.60;;;18.70;99.90;;;;;;5013133;28;20473;-79
2022/08/27 05:07:57;;;;;;;10.63;6.40;;;18.70;99.90;;;;;;4995533;28;20257;-83
2022/08/27 05:10:23;;;;;;;8.33;5.47;;;18.70;99.90;;;;;;5013140;28;20527;-82
2022/08/27 05:12:48;;;;;;;8.13;5.33;;;18.70;99.90;;;;;;5013147;28;20178;-81
2022/08/27 05:15:14;;;;;;;8.07;5.60;;;18.80;99.90;;;;;;5013269;28;20702;-80
2022/08/27 05:17:39;;;;;;;8.73;6.20;;;18.80;99.90;;;;;;5013090;28;20634;-83
2022/08/27 05:20:06;;;;;;;7.87;5.40;;;18.80;99.90;;;;;;5012721;28;20181;-80
2022/08/27 05:22:31;;;;;;;12.80;7.03;;;18.80;99.90;;;;;;5013001;28;20280;-83
2022/08/27 05:24:57;;;;;;;14.27;6.53;;;18.70;99.90;;;;;;5012850;28;20566;-80
2022/08/27 05:27:22;;;;;;;12.17;7.10;;;18.80;99.90;;;;;;5012935;28;20170;-79
2022/08/27 05:29:48;;;;;;;10.17;5.77;;;18.80;99.90;;;;;;5013020;28;20205;-78
2022/08/27 05:32:13;;;;;;;6.87;5.33;;;18.80;99.90;;;;;;5012942;28;20183;-82
2022/08/27 05:34:39;;;;;;;7.50;5.07;;;18.80;99.90;;;;;;5012528;28;20187;-80
2022/08/27 05:37:04;;;;;;;8.30;6.10;;;18.80;99.90;;;;;;5012727;28;20173;-82
2022/08/27 05:39:29;;;;;;;8.50;5.50;;;18.70;99.90;;;;;;5012739;28;20182;-81
2022/08/27 05:41:56;;;;;;;9.70;5.23;;;18.70;99.90;;;;;;5012863;28;20170;-81
2022/08/27 05:44:21;;;;;;;13.83;7.20;;;18.70;99.90;;;;;;5012817;28;20197;-80
2022/08/27 05:46:47;;;;;;;9.73;6.13;;;18.60;99.90;;;;;;5012913;28;20469;-80
2022/08/27 05:49:13;;;;;;;10.63;6.30;;;18.70;99.90;;;;;;5012490;28;20313;-80
2022/08/27 05:51:39;;;;;;;9.40;5.47;;;18.70;99.90;;;;;;5012858;28;20205;-79
2022/08/27 05:54:07;;;;;;;12.17;6.33;;;18.70;99.90;;;;;;5012803;28;20448;-81
2022/08/27 05:56:35;;;;;;;10.10;6.33;;;18.70;99.90;;;;;;5012678;28;20960;-81
2022/08/27 06:01:48;;;;;;;10.00;5.23;;;18.70;99.90;;;;;;5013034;28;20932;-79
2022/08/27 06:04:14;;;;;;;8.30;5.50;;;18.60;99.90;;;;;;5012311;28;20482;-81
2022/08/27 06:06:41;;;;;;;8.23;4.70;;;18.60;99.90;;;;;;4995039;28;20791;-79
2022/08/27 06:09:09;;;;;;;7.73;5.37;;;18.60;99.90;;;;;;5012664;28;20413;-85
2022/08/27 06:11:35;;;;;;;8.97;5.90;;;18.60;99.90;;;;;;4996053;28;20430;-84
2022/08/27 06:14:00;;;;;;;10.97;5.90;;;18.60;99.90;;;;;;5016333;28;20988;-84
2022/08/27 06:16:26;;;;;;;7.97;5.00;;;18.70;99.90;;;;;;5016371;28;20185;-84
2022/08/27 06:18:53;;;;;;;11.00;4.87;;;18.80;99.90;;;;;;5015938;28;20174;-85
2022/08/27 06:21:19;;;;;;;7.63;4.50;;;;;;;;;;4998689;28;20433;-84
2022/08/27 06:23:46;;;;;;;7.00;5.30;;;18.70;99.90;;;;;;5016015;28;20840;-84
2022/08/27 06:26:16;;;;;;;6.67;5.13;;;18.60;99.90;;;;;;5016160;28;20455;-80
2022/08/27 06:28:41;;;;;;;7.60;4.57;;;18.70;99.90;;;;;;5016073;28;20421;-84
2022/08/27 06:31:13;;;;;;;9.73;5.27;;;18.70;99.90;;;;;;5015986;28;20906;-84
2022/08/27 06:33:40;;;;;;;8.83;6.90;;;18.90;99.90;;;;;;5015521;28;20173;-84
2022/08/27 06:36:09;;;;;;;9.80;6.03;;;18.80;99.90;;;;;;5015918;28;20425;-85
2022/08/27 06:38:35;;;;;;;7.80;4.87;;;18.80;99.90;;;;;;5015904;28;20417;-84
2022/08/27 06:41:06;;;;;;;8.50;6.00;;;18.80;99.90;;;;;;5015870;28;20936;-85
2022/08/27 06:43:35;;;;;;;9.57;5.40;;;18.90;99.90;;;;;;5015768;28;20449;-83
2022/08/27 06:46:05;;;;;;;9.43;6.67;;;18.90;99.90;;;;;;5015642;28;20478;-85
2022/08/27 06:48:31;;;;;;;8.60;5.73;;;18.90;99.90;;;;;;5015336;28;20417;-84
2022/08/27 06:50:58;;;;;;;7.73;4.70;;;18.90;99.90;;;;;;5015764;28;20423;-85
2022/08/27 06:53:24;;;;;;;12.20;5.10;;;19.00;99.90;;;;;;5015632;28;20440;-85
2022/08/27 06:55:50;;;;;;;11.70;6.30;;;18.90;99.90;;;;;;5015314;28;20864;-83
2022/08/27 06:58:17;;;;;;;8.50;4.27;;;18.90;99.90;;;;;;5015509;28;20458;-85
2022/08/27 07:00:43;;;;;;;9.30;4.87;;;19.00;99.90;;;;;;5015468;28;20422;-84
2022/08/27 07:03:09;;;;;;;7.57;4.50;;;19.00;99.90;;;;;;5015115;28;20424;-85
2022/08/27 07:05:37;;;;;;;7.87;4.40;;;19.00;99.90;;;;;;5015216;28;20483;-85
2022/08/27 07:08:04;;;;;;;10.37;4.63;;;19.00;99.90;;;;;;5015342;28;20913;-85
2022/08/27 07:10:30;;;;;;;10.00;5.10;;;19.10;99.90;;;;;;5015361;28;20449;-85
2022/08/27 07:12:56;;;;;;;6.27;4.30;;;19.10;99.90;;;;;;5015440;28;20413;-79
2022/08/27 07:15:22;;;;;;;6.30;4.23;;;19.20;99.90;;;;;;5015228;28;20425;-79
2022/08/27 07:17:47;;;;;;;8.20;5.00;;;19.10;99.90;;;;;;5014869;28;20439;-81
2022/08/27 07:20:15;;;;;;;7.80;4.80;;;19.10;99.90;;;;;;5015128;28;20232;-79
2022/08/27 07:22:44;;;;;;;6.17;3.83;;;19.10;99.90;;;;;;5014016;28;20182;-79
2022/08/27 07:25:14;;;;;;;7.37;4.03;;;19.10;99.90;;;;;;5014747;28;20479;-79
2022/08/27 07:27:40;;;;;;;8.73;5.50;;;19.00;99.90;;;;;;5014948;28;20788;-79
2022/08/27 07:30:09;;;;;;;5.83;2.93;;;19.00;99.90;;;;;;5015009;28;20418;-79
2022/08/27 07:32:34;;;;;;;8.60;4.50;;;19.10;99.90;;;;;;5014569;28;20421;-79
2022/08/27 07:35:00;;;;;;;8.40;4.27;;;19.10;99.90;;;;;;5014783;28;20512;-79
2022/08/27 07:37:25;;;;;;;6.30;3.37;;;19.10;99.90;;;;;;5015019;28;20569;-79
2022/08/27 07:39:51;;;;;;;6.57;4.40;;;19.00;99.90;;;;;;5014774;28;20229;-78
2022/08/27 07:45:00;;;;;;;4.63;3.33;;;18.90;99.90;;;;;;5014708;28;20228;-80
2022/08/27 07:47:26;;;;;;;8.27;4.40;;;19.00;99.90;;;;;;5014181;28;20537;-80
2022/08/27 07:49:51;;;;;;;5.20;3.50;;;18.90;99.90;;;;;;5014494;28;20227;-79
2022/08/27 07:52:17;;;;;;;7.00;3.90;;;18.90;99.90;;;;;;5014518;28;20667;-85
2022/08/27 07:54:42;;;;;;;6.90;3.73;;;19.00;99.90;;;;;;5014349;28;20228;-83
2022/08/27 07:57:10;;;;;;;8.30;3.67;;;19.00;99.90;;;;;;5014406;28;20209;-81
2022/08/27 07:59:35;;;;;;;6.60;4.17;;;19.00;99.90;;;;;;5014454;28;20174;-80
2022/08/27 08:02:01;;;;;;;6.77;4.20;;;18.90;99.90;;;;;;4996671;28;20437;-80
2022/08/27 08:04:27;;;;;;;8.37;4.63;;;19.00;99.90;;;;;;5013923;28;20213;-82
2022/08/27 08:06:54;;;;;;;9.07;4.30;;;19.10;99.90;;;;;;5014222;28;20428;-80
2022/08/27 08:09:22;;;;;;;8.10;3.90;;;19.00;99.90;;;;;;4996620;28;20167;-80
2022/08/27 08:11:48;;;;;;;5.50;3.37;;;18.90;99.90;;;;;;5014129;28;20424;-79
2022/08/27 08:14:14;;;;;;;7.73;3.70;;;18.90;99.90;;;;;;5011782;28;20432;-81
2022/08/27 08:16:39;;;;;;;6.30;3.80;;;18.90;99.90;;;;;;5003021;28;20456;-80
2022/08/27 08:19:05;;;;;;;8.67;3.23;;;18.90;99.90;;;;;;4995292;28;20182;-84
2022/08/27 08:21:30;;;;;;;6.50;3.10;;;18.80;99.90;;;;;;5013696;28;20323;-82
2022/08/27 08:23:56;;;;;;;8.50;3.60;;;18.80;99.90;;;;;;5013576;28;20640;-79
2022/08/27 08:26:22;;;;;;;7.17;2.17;;;18.80;99.90;;;;;;5013463;28;20179;-82
2022/08/27 08:28:48;;;;;;;4.73;3.23;;;18.80;99.90;;;;;;5013437;28;20170;-80
2022/08/27 08:31:14;;;;;;;7.47;3.67;;;18.70;99.90;;;;;;5013487;28;20508;-82
2022/08/27 08:33:39;;;;;;;5.73;3.93;;;18.70;99.90;;;;;;5012887;28;20634;-83
2022/08/27 08:36:09;;;;;;;4.70;2.73;;;18.80;99.90;;;;;;5013093;28;20170;-81
2022/08/27 08:38:36;;;;;;;8.10;3.83;;;18.90;99.90;;;;;;5013438;28;20205;-81
2022/08/27 08:41:02;;;;;;;8.87;4.40;;;18.90;99.90;;;;;;5013216;28;20777;-80
2022/08/27 08:43:37;;;;;;;5.80;3.47;;;18.90;99.90;;;;;;4995567;28;20952;-83
2022/08/27 08:46:43;;;;;;;5.50;2.80;;;18.90;99.90;;;;;;5013124;28;20468;-80
2022/08/27 08:49:37;;;;;;;6.77;2.60;;;18.90;99.90;;;;;;5012742;28;20409;-81
2022/08/27 08:52:36;;;;;;;4.77;2.60;;;18.90;99.90;;;;;;5013152;28;20415;-82
2022/08/27 08:55:12;;;;;;;4.10;2.47;;;18.90;99.90;;;;;;5010106;28;20465;-84
2022/08/27 08:57:55;;;;;;;3.90;2.17;;;18.90;99.90;;;;;;5013045;28;20495;-80
2022/08/27 09:00:21;;;;;;;5.73;2.07;;;18.90;99.90;;;;;;5012960;28;20412;-82
2022/08/27 09:02:52;;;;;;;5.23;2.37;;;19.00;99.90;;;;;;5012529;28;20414;-84
2022/08/27 09:05:17;;;;;;;5.23;2.10;;;18.90;99.90;;;;;;5010821;28;20246;-85
2022/08/27 09:08:11;;;;;;;4.60;2.50;;;19.00;99.90;;;;;;5002470;28;20505;-79
2022/08/27 09:10:46;;;;;;;6.97;3.03;;;19.00;99.90;;;;;;4994980;28;20514;-83
2022/08/27 09:13:32;;;;;;;3.30;2.60;;;19.00;99.90;;;;;;5012830;28;20461;-82
2022/08/27 09:16:01;;;;;;;4.50;2.80;;;19.00;99.90;;;;;;5012913;28;20751;-80
2022/08/27 09:18:27;;;;;;;4.57;1.93;;;19.00;99.90;;;;;;5012614;28;20425;-81
2022/08/27 09:21:19;;;;;;;7.20;2.80;;;19.00;99.90;;;;;;5012710;28;20513;-79
2022/08/27 09:24:10;;;;;;;4.30;2.50;;;19.10;99.90;;;;;;5012636;28;20233;-80
2022/08/27 09:26:39;;;;;;;6.97;2.63;;;19.10;99.90;;;;;;5012697;28;20525;-79
2022/08/27 09:29:18;;;;;;;3.97;2.57;;;19.10;99.90;;;;;;5012551;28;20417;-78
2022/08/27 09:32:02;;;;;;;3.30;2.50;;;19.10;99.90;;;;;;5012623;28;20915;-79
2022/08/27 09:34:34;;;;;;;5.57;2.20;;;19.30;99.90;;;;;;5012321;28;21024;-79
2022/08/27 09:37:19;;;;;;;4.93;2.50;;;19.20;99.90;;;;;;5012535;28;20617;-79
2022/08/27 09:40:25;;;;;;;3.70;2.23;;;19.30;99.90;;;;;;4996253;28;20748;-81
2022/08/27 09:42:53;;;;;;;4.20;2.30;;;19.40;99.90;;;;;;5012455;28;20545;-79
2022/08/27 09:45:27;;;;;;;7.90;2.77;;;19.30;99.90;;;;;;5012834;28;20568;-79
2022/08/27 09:48:01;;;;;;;7.07;2.53;;;19.20;99.90;;;;;;5036907;28;20429;-82
2022/08/27 09:50:37;;;;;;;5.90;2.50;;;19.20;99.90;;;;;;5037464;28;20425;-82
2022/08/27 09:53:03;;;;;;;4.90;2.50;;;19.30;99.90;;;;;;5030528;28;20416;-84
2022/08/27 09:55:46;;;;;;;6.83;3.27;;;19.20;99.90;;;;;;5019010;28;20569;-83
2022/08/27 09:58:24;;;;;;;5.43;3.30;;;19.20;99.90;;;;;;4998825;28;20436;-81
2022/08/27 10:01:03;;;;;;;3.10;1.80;;;19.20;99.90;;;;;;5016316;28;20989;-84
2022/08/27 10:03:29;;;;;;;4.53;2.30;;;19.30;99.90;;;;;;5015941;28;20452;-83
2022/08/27 10:05:55;;;;;;;6.37;2.40;;;19.10;99.90;;;;;;5016011;28;20997;-85
2022/08/27 10:08:39;;;;;;;6.20;3.13;;;19.00;99.90;;;;;;4998357;28;20497;-82
2022/08/27 10:11:20;;;;;;;5.20;2.43;;;19.00;99.90;;;;;;5015920;28;20918;-84
2022/08/27 10:13:57;;;;;;;7.30;3.60;;;19.00;99.90;;;;;;5016049;28;20413;-85
2022/08/27 10:16:48;;;;;;;4.33;2.60;;;18.90;99.90;;;;;;5015992;28;20577;-85
2022/08/27 10:19:17;;;;;;;5.87;3.40;;;18.80;99.90;;;;;;5015572;28;20899;-84
2022/08/27 10:21:55;;;;;;;4.50;2.90;;;18.90;99.90;;;;;;5015766;28;20465;-84
2022/08/27 10:25:00;;;;;;;6.80;3.37;;;18.90;99.90;;;;;;5015640;28;20488;-80
2022/08/27 10:27:42;;;;;;;5.27;2.50;;;18.80;99.90;;;;;;5015525;28;20449;-81
2022/08/27 10:30:14;;;;;;;6.00;2.93;;;18.80;99.90;;;;;;5015704;28;20756;-85
2022/08/27 10:32:49;;;;;;;9.23;3.83;;;18.90;99.90;;;;;;5015348;28;20418;-85
2022/08/27 10:35:20;;;;;;;5.60;3.20;;;18.90;99.90;;;;;;5015621;28;20544;-85
2022/08/27 10:38:09;;;;;;;4.40;2.50;;;18.80;99.90;;;;;;5015557;28;20433;-85
2022/08/27 10:40:56;;;;;;;4.90;2.10;;;18.90;99.90;;;;;;5015561;28;20753;-81
2022/08/27 10:43:43;;;;;;;7.37;2.20;;;18.90;99.90;;;;;;5015432;28;20909;-85
2022/08/27 10:46:24;;;;;;;4.73;2.73;;;18.90;99.90;;;;;;5015189;28;20481;-84
2022/08/27 10:49:27;;;;;;;5.50;2.23;;;19.00;99.90;;;;;;5014908;28;20395;-85
2022/08/27 10:52:12;;;;;;;5.30;2.83;;;19.10;99.90;;;;;;5015333;28;20414;-85
2022/08/27 10:54:46;;;;;;;8.07;3.93;;;19.20;99.90;;;;;;4997875;28;20405;-85
2022/08/27 10:57:37;;;;;;;4.80;2.90;;;19.30;99.90;;;;;;5014914;28;20423;-83
2022/08/27 11:00:19;;;;;;;6.33;3.03;;;19.40;99.90;;;;;;5015079;28;20412;-82
2022/08/27 11:03:03;;;;;;;6.30;3.07;;;19.50;99.90;;;;;;5014874;28;20410;-81
2022/08/27 11:05:38;;;;;;;4.13;2.90;;;19.70;99.90;;;;;;5015032;28;20523;-80
2022/08/27 11:08:37;;;;;;;4.27;2.93;;;19.70;99.90;;;;;;5014862;28;20517;-81
2022/08/27 11:11:16;;;;;;;5.50;2.63;;;19.60;99.90;;;;;;5015023;28;20418;-80
2022/08/27 11:13:50;;;;;;;3.60;1.93;;;19.60;99.90;;;;;;5014898;28;20447;-81
2022/08/27 11:16:40;;;;;;;4.20;2.03;;;19.70;99.90;;;;;;5014866;28;20402;-81
2022/08/27 11:19:32;;;;;;;4.20;2.10;;;19.70;99.90;;;;;;5014829;28;20465;-80
2022/08/27 11:22:07;;;;;;;3.53;1.90;;;19.90;99.90;;;;;;4984601;28;20827;-80
2022/08/27 11:24:42;;;;;;;2.43;1.73;;;20.00;99.90;;;;;;5014547;28;20458;-83
2022/08/27 11:27:08;;;;;;;4.00;2.40;;;20.20;99.90;;;;;;5014736;28;20444;-85
2022/08/27 11:30:01;;;;;;;5.80;2.73;;;20.10;99.90;;;;;;5014642;28;20481;-86
2022/08/27 11:32:53;;;;;;;6.30;2.87;;;20.20;99.90;;;;;;4996780;28;20451;-85
2022/08/27 11:35:45;;;;;;;4.60;2.60;;;20.20;99.90;;;;;;5014683;28;20578;-82
2022/08/27 11:38:26;;;;;;;10.03;3.33;;;20.10;99.90;;;;;;5014374;28;20478;-85
2022/08/27 11:41:13;;;;;;;3.23;2.20;;;20.20;99.90;;;;;;5014401;28;20978;-81
2022/08/27 11:43:41;;;;;;;2.33;1.30;;;20.20;99.90;;;;;;5014425;28;20404;-83
2022/08/27 11:46:08;;;;;;;3.53;2.00;;;20.20;99.90;;;;;;5014103;28;20511;-81
2022/08/27 11:48:39;;;;;;;5.73;3.10;;;20.30;99.90;;;;;;5013671;28;20500;-83
2022/08/27 11:51:27;;;;;;;4.30;2.43;;;20.40;99.90;;;;;;5013987;28;20460;-84
2022/08/27 11:54:01;;;;;;;4.97;2.00;;;20.40;99.90;;;;;;5014130;28;20410;-79
2022/08/27 11:56:31;;;;;;;3.97;2.50;;;20.30;99.90;;;;;;5013926;28;20986;-79
2022/08/27 11:59:22;;;;;;;6.00;2.40;;;20.20;99.90;;;;;;5014204;28;20422;-83
2022/08/27 12:01:51;;;;;;;5.20;2.77;;;20.40;99.90;;;;;;5013688;28;20404;-83
2022/08/27 12:04:43;;;;;;;6.00;2.63;;;20.40;99.90;;;;;;5013777;28;20973;-82
2022/08/27 12:07:16;;;;;;;5.03;2.30;;;20.30;99.90;;;;;;5010165;28;20456;-84
2022/08/27 12:10:16;;;;;;;4.80;2.47;;;20.30;99.90;;;;;;5013186;28;20429;-79
2022/08/27 12:13:24;;;;;;;5.37;1.97;;;20.40;99.90;;;;;;5009593;28;20480;-82
2022/08/27 12:16:11;;;;;;;10.53;2.47;;;20.40;99.90;;;;;;4996649;28;20944;-85
2022/08/27 12:19:11;;;;;;;3.43;2.00;;;20.50;99.90;;;;;;5013447;28;20470;-85
2022/08/27 12:22:11;;;;;;;3.53;1.63;;;20.50;99.90;;;;;;5009574;28;20483;-83
2022/08/27 12:24:52;;;;;;;4.07;2.20;;;20.40;99.90;;;;;;5013575;28;21181;-83
2022/08/27 12:27:20;;;;;;;2.17;1.50;;;20.40;99.90;;;;;;5013630;28;20434;-80
2022/08/27 12:29:59;;;;;;;5.57;2.43;;;20.50;99.90;;;;;;5013463;28;20408;-80
2022/08/27 12:32:51;;;;;;;3.83;1.50;;;20.70;99.90;;;;;;5012927;28;20442;-79
2022/08/27 12:35:41;;;;;;;7.13;3.33;;;20.80;99.90;;;;;;4983130;28;20435;-81
2022/08/27 12:38:22;;;;;;;5.70;3.50;;;20.90;99.90;;;;;;5013287;28;20421;-80
2022/08/27 12:40:53;;;;;;;3.07;1.40;;;20.90;99.90;;;;;;5013290;28;20508;-80
2022/08/27 12:43:26;;;;;;;4.20;1.50;;;20.90;99.90;;;;;;5013565;28;20818;-82
2022/08/27 12:46:00;;;;;;;5.70;2.43;;;21.00;99.90;;;;;;5013214;28;20468;-81
2022/08/27 12:48:42;;;;;;;4.37;1.50;;;21.10;99.90;;;;;;5012972;28;20501;-83
2022/08/27 12:51:20;;;;;;;5.43;1.30;;;20.90;99.90;;;;;;5013115;28;20424;-80
2022/08/27 12:53:53;;;;;;;3.60;1.57;;;21.00;99.90;;;;;;5013220;28;20418;-82
2022/08/27 12:56:40;;;;;;;1.93;1.13;;;21.10;99.90;;;;;;5012702;28;20477;-82
2022/08/27 12:59:43;;;;;;;5.40;2.13;;;21.20;99.90;;;;;;5013261;28;20405;-82
2022/08/27 13:02:41;;;;;;;5.80;2.10;;;21.10;99.90;;;;;;5010087;28;20439;-81
2022/08/27 13:05:09;;;;;;;5.63;1.47;;;21.00;99.90;;;;;;4995037;28;20475;-80
2022/08/27 13:07:41;;;;;;;3.43;1.43;;;21.00;99.90;;;;;;4995246;28;20431;-82
2022/08/27 13:10:16;;;;;;;6.30;1.70;;;21.00;99.90;;;;;;5012876;28;20484;-80
2022/08/27 13:12:43;;;;;;;2.60;1.20;;;21.20;99.90;;;;;;5012740;28;20464;-80
2022/08/27 13:15:12;;;;;;;4.03;1.23;;;21.30;10.90;;;;;;5012745;28;20435;-82
2022/08/27 13:17:39;;;;;;;2.97;1.43;;;21.40;1.00;;;;;;5012498;28;20831;-81